Grand Forks International Airport
KGFK : now visible

Airfield :











YOU CAN JOIN US ON...

 
LOGIN :

Register | Disclaimer

   EN    FR    IT 

 









Legend :    VFR   Marginal VFR   IFR   Intensive IFR   Very Intensive IFR
Visi :
Ceiling :
>= 8 km
>= 3000ft
5 to 8 km
1000 to 3000 ft
1500m to 5 km
500 to 1000 ft
800 to 1500m
200 to 500 ft
< 800m
< 200 ft
Symbols :   Thunderstorms  Fog  Heavy snow  Heavy precipitations  Wind > 20 kt






- Airport Elevation : 845 ft
- IATA code : GFK


KGFK - Grand Forks International

CURRENT METAR :
  • 212353Z 24014G20KT 10SM SCT250 17/M07 A2993 RMK AO2 SLP141 T01671072 10178 20144 56029

EXPIRED METARs :
  • 212253Z 22015KT 10SM CLR 17/M08 A2995 RMK AO2 SLP148 T01721078
  • 212153Z 24008G19KT 200V270 10SM CLR 17/M08 A2998 RMK AO2 SLP159 T01721083
  • 212053Z 28010G20KT 10SM CLR 17/M09 A3001 RMK AO2 SLP170 T01671094 58029
  • 211953Z 25012G19KT 10SM CLR 17/M08 A3005 RMK AO2 SLP183 T01671078

TAF KGFK
Valid from the 22 at 00:00 until the 23 at 00:00 UTC


212320Z 2200/2224 22015KT P6SM SKC
FM221600 25010KT P6SM OVC250
FM222000 27019G28KT P6SM BKN100
KZMP FIR / North America



MET'MAP, your aeronautical weather chart ! - Copyright ORBIFLY December 2007 - Disclaimer

ORBIFLY MET'MAP TEAM :

Programming & Development : Alexandra Zaïnal
Original concept : Baudouin d'Aumeries
Technical & hardware support : Manuel Goepfert
Assistance : Marc-Olivier Méhu




SOURCES & CREDITS :

   NOAA       Earth
Advisory